Terminal Aerodrome Forecast
Issued by NWS

Home | Current Version | Previous Version | Text Only | Print | Product List | Glossary On
Versions: 1 2 3 4 5 6 7 8 9 10 11 12 13 14 15
000
FTUS41 KCAR 031120
TAFPQI
TAF
KPQI 031120Z 0312/0412 34007KT 2SM BR SCT002
     FM031300 34008KT P6SM FEW250
     FM031700 33012KT P6SM SKC
     FM040000 35004KT P6SM SKC
      AMD LTD TO CLD VIS AND WIND=

USA.gov is the U.S. government's official web portal to all federal, state and local government web resources and services.